sensor_id;sensor_type;location;lat;lon;timestamp;temperature;humidity
49042;DHT22;34859;51.608;11.462;2024-01-11T00:00:13;-9.90;99.90
49042;DHT22;34859;51.608;11.462;2024-01-11T00:02:54;-9.80;99.90
49042;DHT22;34859;51.608;11.462;2024-01-11T00:05:38;-9.80;99.90
49042;DHT22;34859;51.608;11.462;2024-01-11T00:08:23;-9.80;99.90
49042;DHT22;34859;51.608;11.462;2024-01-11T00:11:07;-9.80;99.90
49042;DHT22;34859;51.608;11.462;2024-01-11T00:13:49;-9.80;99.90
49042;DHT22;34859;51.608;11.462;2024-01-11T00:16:33;-9.80;99.90
49042;DHT22;34859;51.608;11.462;2024-01-11T00:19:17;-9.80;99.90
49042;DHT22;34859;51.608;11.462;2024-01-11T00:22:01;-9.90;99.90
49042;DHT22;34859;51.608;11.462;2024-01-11T00:24:45;-10.00;99.90
49042;DHT22;34859;51.608;11.462;2024-01-11T00:27:30;-10.00;99.90
49042;DHT22;34859;51.608;11.462;2024-01-11T00:30:14;-10.00;99.90
49042;DHT22;34859;51.608;11.462;2024-01-11T00:32:58;-9.90;99.90
49042;DHT22;34859;51.608;11.462;2024-01-11T00:35:42;-10.00;99.90
49042;DHT22;34859;51.608;11.462;2024-01-11T00:38:23;-9.90;99.90
49042;DHT22;34859;51.608;11.462;2024-01-11T00:41:07;-9.90;99.90
49042;DHT22;34859;51.608;11.462;2024-01-11T00:43:51;-9.80;99.90
49042;DHT22;34859;51.608;11.462;2024-01-11T00:46:35;-9.80;99.90
49042;DHT22;34859;51.608;11.462;2024-01-11T00:49:17;-9.80;99.90
49042;DHT22;34859;51.608;11.462;2024-01-11T00:52:01;-9.80;99.90
49042;DHT22;34859;51.608;11.462;2024-01-11T00:54:43;-9.90;99.90
49042;DHT22;34859;51.608;11.462;2024-01-11T00:57:27;-9.80;99.90
49042;DHT22;34859;51.608;11.462;2024-01-11T01:00:10;-9.90;99.90
49042;DHT22;34859;51.608;11.462;2024-01-11T01:02:56;-9.90;99.90
49042;DHT22;34859;51.608;11.462;2024-01-11T01:05:40;-9.90;99.90
49042;DHT22;34859;51.608;11.462;2024-01-11T01:08:24;-9.80;99.90
49042;DHT22;34859;51.608;11.462;2024-01-11T01:11:08;-9.80;99.90
49042;DHT22;34859;51.608;11.462;2024-01-11T01:13:53;-9.80;99.90
49042;DHT22;34859;51.608;11.462;2024-01-11T01:16:37;-9.80;99.90
49042;DHT22;34859;51.608;11.462;2024-01-11T01:19:21;-9.90;99.90
49042;DHT22;34859;51.608;11.462;2024-01-11T01:22:05;-9.80;99.90
49042;DHT22;34859;51.608;11.462;2024-01-11T01:24:48;-9.80;99.90
49042;DHT22;34859;51.608;11.462;2024-01-11T01:27:32;-9.80;99.90
49042;DHT22;34859;51.608;11.462;2024-01-11T01:30:16;-9.80;99.90
49042;DHT22;34859;51.608;11.462;2024-01-11T01:33:00;-9.80;99.90
49042;DHT22;34859;51.608;11.462;2024-01-11T01:35:44;-9.80;99.90
49042;DHT22;34859;51.608;11.462;2024-01-11T01:38:26;-9.80;99.90
49042;DHT22;34859;51.608;11.462;2024-01-11T01:41:11;-9.70;99.90
49042;DHT22;34859;51.608;11.462;2024-01-11T01:43:55;-9.70;99.90
49042;DHT22;34859;51.608;11.462;2024-01-11T01:46:39;-9.80;99.90
49042;DHT22;34859;51.608;11.462;2024-01-11T01:49:23;-9.80;99.90
49042;DHT22;34859;51.608;11.462;2024-01-11T01:52:08;-9.70;99.90
49042;DHT22;34859;51.608;11.462;2024-01-11T01:54:52;-9.70;99.90
49042;DHT22;34859;51.608;11.462;2024-01-11T01:57:37;-9.70;99.90
49042;DHT22;34859;51.608;11.462;2024-01-11T02:00:22;-9.70;99.90
49042;DHT22;34859;51.608;11.462;2024-01-11T02:03:04;-9.70;99.90
49042;DHT22;34859;51.608;11.462;2024-01-11T02:05:48;-9.80;99.90
49042;DHT22;34859;51.608;11.462;2024-01-11T02:08:33;-9.80;99.90
49042;DHT22;34859;51.608;11.462;2024-01-11T02:11:20;-9.80;99.90
49042;DHT22;34859;51.608;11.462;2024-01-11T02:14:02;-9.70;99.90
49042;DHT22;34859;51.608;11.462;2024-01-11T02:16:47;-9.80;99.90
49042;DHT22;34859;51.608;11.462;2024-01-11T02:19:28;-9.80;99.90
49042;DHT22;34859;51.608;11.462;2024-01-11T02:22:18;-9.80;99.90
49042;DHT22;34859;51.608;11.462;2024-01-11T02:25:05;-9.80;99.90
49042;DHT22;34859;51.608;11.462;2024-01-11T02:27:49;-9.70;99.90
49042;DHT22;34859;51.608;11.462;2024-01-11T02:30:34;-9.70;99.90
49042;DHT22;34859;51.608;11.462;2024-01-11T02:33:19;-9.70;99.90
49042;DHT22;34859;51.608;11.462;2024-01-11T02:36:03;-9.60;99.90
49042;DHT22;34859;51.608;11.462;2024-01-11T02:38:49;-9.60;99.90
49042;DHT22;34859;51.608;11.462;2024-01-11T02:41:36;-9.70;99.90
49042;DHT22;34859;51.608;11.462;2024-01-11T02:44:21;-9.70;99.90
49042;DHT22;34859;51.608;11.462;2024-01-11T02:47:05;-9.60;99.90
49042;DHT22;34859;51.608;11.462;2024-01-11T02:49:50;-9.70;99.90
49042;DHT22;34859;51.608;11.462;2024-01-11T02:52:34;-9.80;99.90
49042;DHT22;34859;51.608;11.462;2024-01-11T02:55:18;-9.70;99.90
49042;DHT22;34859;51.608;11.462;2024-01-11T02:58:02;-9.80;99.90
49042;DHT22;34859;51.608;11.462;2024-01-11T03:00:46;-9.90;99.90
49042;DHT22;34859;51.608;11.462;2024-01-11T03:03:28;-9.80;99.90
49042;DHT22;34859;51.608;11.462;2024-01-11T03:06:12;-9.80;99.90
49042;DHT22;34859;51.608;11.462;2024-01-11T03:08:56;-9.80;99.90
49042;DHT22;34859;51.608;11.462;2024-01-11T03:11:40;-9.80;99.90
49042;DHT22;34859;51.608;11.462;2024-01-11T03:14:24;-9.80;99.90
49042;DHT22;34859;51.608;11.462;2024-01-11T03:17:08;-9.80;99.90
49042;DHT22;34859;51.608;11.462;2024-01-11T03:19:49;-9.80;99.90
49042;DHT22;34859;51.608;11.462;2024-01-11T03:22:34;-9.80;99.90
49042;DHT22;34859;51.608;11.462;2024-01-11T03:25:18;-9.70;99.90
49042;DHT22;34859;51.608;11.462;2024-01-11T03:27:59;-9.70;99.90
49042;DHT22;34859;51.608;11.462;2024-01-11T03:30:41;-9.70;99.90
49042;DHT22;34859;51.608;11.462;2024-01-11T03:33:25;-9.70;99.90
49042;DHT22;34859;51.608;11.462;2024-01-11T03:36:11;-9.70;99.90
49042;DHT22;34859;51.608;11.462;2024-01-11T03:38:52;-9.70;99.90
49042;DHT22;34859;51.608;11.462;2024-01-11T03:41:36;-9.70;99.90
49042;DHT22;34859;51.608;11.462;2024-01-11T03:44:17;-9.70;99.90
49042;DHT22;34859;51.608;11.462;2024-01-11T03:47:01;-9.60;99.90
49042;DHT22;34859;51.608;11.462;2024-01-11T03:49:43;-9.50;99.90
49042;DHT22;34859;51.608;11.462;2024-01-11T03:52:27;-9.60;99.90
49042;DHT22;34859;51.608;11.462;2024-01-11T03:55:11;-9.60;99.90
49042;DHT22;34859;51.608;11.462;2024-01-11T03:57:53;-9.60;99.90
49042;DHT22;34859;51.608;11.462;2024-01-11T04:00:34;-9.60;99.90
49042;DHT22;34859;51.608;11.462;2024-01-11T04:03:18;-9.70;99.90
49042;DHT22;34859;51.608;11.462;2024-01-11T04:06:03;-9.70;99.90
49042;DHT22;34859;51.608;11.462;2024-01-11T04:08:48;-9.70;99.90
49042;DHT22;34859;51.608;11.462;2024-01-11T04:11:32;-9.70;99.90
49042;DHT22;34859;51.608;11.462;2024-01-11T04:14:16;-9.70;99.90
49042;DHT22;34859;51.608;11.462;2024-01-11T04:16:58;-9.70;99.90
49042;DHT22;34859;51.608;11.462;2024-01-11T04:19:42;-9.60;99.90
49042;DHT22;34859;51.608;11.462;2024-01-11T04:22:27;-9.60;99.90
49042;DHT22;34859;51.608;11.462;2024-01-11T04:25:09;-9.70;99.90
49042;DHT22;34859;51.608;11.462;2024-01-11T04:27:53;-9.70;99.90
49042;DHT22;34859;51.608;11.462;2024-01-11T04:30:34;-9.70;99.90
49042;DHT22;34859;51.608;11.462;2024-01-11T04:33:18;-9.80;99.90
49042;DHT22;34859;51.608;11.462;2024-01-11T04:36:02;-9.90;99.90
49042;DHT22;34859;51.608;11.462;2024-01-11T04:38:46;-9.90;99.90
49042;DHT22;34859;51.608;11.462;2024-01-11T04:41:30;-9.90;99.90
49042;DHT22;34859;51.608;11.462;2024-01-11T04:44:12;-9.90;99.90
49042;DHT22;34859;51.608;11.462;2024-01-11T04:46:56;-9.90;99.90
49042;DHT22;34859;51.608;11.462;2024-01-11T04:49:40;-9.70;99.90
49042;DHT22;34859;51.608;11.462;2024-01-11T04:52:24;-9.60;99.90
49042;DHT22;34859;51.608;11.462;2024-01-11T04:55:08;-9.60;99.90
49042;DHT22;34859;51.608;11.462;2024-01-11T04:57:52;-9.60;99.90
49042;DHT22;34859;51.608;11.462;2024-01-11T05:00:34;-9.60;99.90
49042;DHT22;34859;51.608;11.462;2024-01-11T05:03:15;-9.60;99.90
49042;DHT22;34859;51.608;11.462;2024-01-11T05:05:56;-9.50;99.90
49042;DHT22;34859;51.608;11.462;2024-01-11T05:08:40;-9.60;99.90
49042;DHT22;34859;51.608;11.462;2024-01-11T05:11:24;-9.60;99.90
49042;DHT22;34859;51.608;11.462;2024-01-11T05:14:08;-9.50;99.90
49042;DHT22;34859;51.608;11.462;2024-01-11T05:16:52;-9.50;99.90
49042;DHT22;34859;51.608;11.462;2024-01-11T05:19:36;-9.50;99.90
49042;DHT22;34859;51.608;11.462;2024-01-11T05:22:18;-9.50;99.90
49042;DHT22;34859;51.608;11.462;2024-01-11T05:25:02;-9.50;99.90
49042;DHT22;34859;51.608;11.462;2024-01-11T05:27:46;-9.50;99.90
49042;DHT22;34859;51.608;11.462;2024-01-11T05:30:30;-9.50;99.90
49042;DHT22;34859;51.608;11.462;2024-01-11T05:33:15;-9.60;99.90
49042;DHT22;34859;51.608;11.462;2024-01-11T05:35:58;-9.50;99.90
49042;DHT22;34859;51.608;11.462;2024-01-11T05:38:43;-9.60;99.90
49042;DHT22;34859;51.608;11.462;2024-01-11T05:41:27;-9.50;99.90
49042;DHT22;34859;51.608;11.462;2024-01-11T05:44:11;-9.40;99.90
49042;DHT22;34859;51.608;11.462;2024-01-11T05:46:55;-9.40;99.90
49042;DHT22;34859;51.608;11.462;2024-01-11T05:49:40;-9.40;99.90
49042;DHT22;34859;51.608;11.462;2024-01-11T05:52:24;-9.30;99.90
49042;DHT22;34859;51.608;11.462;2024-01-11T05:55:09;-9.20;99.90
49042;DHT22;34859;51.608;11.462;2024-01-11T05:57:53;-9.20;99.90
49042;DHT22;34859;51.608;11.462;2024-01-11T06:00:37;-9.20;99.90
49042;DHT22;34859;51.608;11.462;2024-01-11T06:03:21;-9.20;99.90
49042;DHT22;34859;51.608;11.462;2024-01-11T06:06:05;-9.10;99.90
49042;DHT22;34859;51.608;11.462;2024-01-11T06:08:49;-9.10;99.90
49042;DHT22;34859;51.608;11.462;2024-01-11T06:11:35;-9.10;99.90
49042;DHT22;34859;51.608;11.462;2024-01-11T06:14:20;-9.10;99.90
49042;DHT22;34859;51.608;11.462;2024-01-11T06:17:06;-9.00;99.90
49042;DHT22;34859;51.608;11.462;2024-01-11T06:19:51;-9.10;99.90
49042;DHT22;34859;51.608;11.462;2024-01-11T06:22:37;-9.10;99.90
49042;DHT22;34859;51.608;11.462;2024-01-11T06:25:22;-9.10;99.90
49042;DHT22;34859;51.608;11.462;2024-01-11T06:28:09;-9.10;99.90
49042;DHT22;34859;51.608;11.462;2024-01-11T06:30:51;-9.00;99.90
49042;DHT22;34859;51.608;11.462;2024-01-11T06:33:37;-9.00;99.90
49042;DHT22;34859;51.608;11.462;2024-01-11T06:36:23;-9.00;99.90
49042;DHT22;34859;51.608;11.462;2024-01-11T06:39:09;-9.00;99.90
49042;DHT22;34859;51.608;11.462;2024-01-11T06:41:51;-8.90;99.90
49042;DHT22;34859;51.608;11.462;2024-01-11T06:44:37;-8.90;99.90
49042;DHT22;34859;51.608;11.462;2024-01-11T06:47:16;-8.90;99.90
49042;DHT22;34859;51.608;11.462;2024-01-11T06:50:02;-8.90;99.90
49042;DHT22;34859;51.608;11.462;2024-01-11T06:52:48;-8.90;99.90
49042;DHT22;34859;51.608;11.462;2024-01-11T06:55:33;-8.80;99.90
49042;DHT22;34859;51.608;11.462;2024-01-11T06:58:13;-8.80;99.90
49042;DHT22;34859;51.608;11.462;2024-01-11T07:00:52;-8.80;99.90
49042;DHT22;34859;51.608;11.462;2024-01-11T07:03:32;-8.70;99.90
49042;DHT22;34859;51.608;11.462;2024-01-11T07:06:17;-8.70;99.90
49042;DHT22;34859;51.608;11.462;2024-01-11T07:08:57;-8.70;99.90
49042;DHT22;34859;51.608;11.462;2024-01-11T07:11:43;-8.60;99.90
49042;DHT22;34859;51.608;11.462;2024-01-11T07:14:29;-8.60;99.90
49042;DHT22;34859;51.608;11.462;2024-01-11T07:17:08;-8.60;99.90
49042;DHT22;34859;51.608;11.462;2024-01-11T07:19:53;-8.60;99.90
49042;DHT22;34859;51.608;11.462;2024-01-11T07:22:39;-8.60;99.90
49042;DHT22;34859;51.608;11.462;2024-01-11T07:25:18;-8.60;99.90
49042;DHT22;34859;51.608;11.462;2024-01-11T07:28:04;-8.60;99.90
49042;DHT22;34859;51.608;11.462;2024-01-11T07:30:49;-8.60;99.90
49042;DHT22;34859;51.608;11.462;2024-01-11T07:33:34;-8.50;99.90
49042;DHT22;34859;51.608;11.462;2024-01-11T07:36:20;-8.50;99.90
49042;DHT22;34859;51.608;11.462;2024-01-11T07:39:06;-8.50;99.90
49042;DHT22;34859;51.608;11.462;2024-01-11T07:41:52;-8.40;99.90
49042;DHT22;34859;51.608;11.462;2024-01-11T07:44:37;-8.40;99.90
49042;DHT22;34859;51.608;11.462;2024-01-11T07:47:23;-8.40;99.90
49042;DHT22;34859;51.608;11.462;2024-01-11T07:50:09;-8.30;99.90
49042;DHT22;34859;51.608;11.462;2024-01-11T07:52:51;-8.30;99.90
49042;DHT22;34859;51.608;11.462;2024-01-11T07:55:33;-8.20;99.90
49042;DHT22;34859;51.608;11.462;2024-01-11T07:58:20;-8.20;99.90
49042;DHT22;34859;51.608;11.462;2024-01-11T08:01:05;-8.10;99.90
49042;DHT22;34859;51.608;11.462;2024-01-11T08:03:47;-8.00;99.90
49042;DHT22;34859;51.608;11.462;2024-01-11T08:06:36;-8.00;99.90
49042;DHT22;34859;51.608;11.462;2024-01-11T08:09:22;-7.90;99.90
49042;DHT22;34859;51.608;11.462;2024-01-11T08:12:07;-7.80;99.90
49042;DHT22;34859;51.608;11.462;2024-01-11T08:14:53;-7.70;99.90
49042;DHT22;34859;51.608;11.462;2024-01-11T08:17:47;-7.70;99.90
49042;DHT22;34859;51.608;11.462;2024-01-11T08:20:27;-7.60;99.90
49042;DHT22;34859;51.608;11.462;2024-01-11T08:23:13;-7.60;99.90
49042;DHT22;34859;51.608;11.462;2024-01-11T08:25:59;-7.50;99.90
49042;DHT22;34859;51.608;11.462;2024-01-11T08:32:29;-7.40;99.90
49042;DHT22;34859;51.608;11.462;2024-01-11T08:36:30;-7.30;99.90
49042;DHT22;34859;51.608;11.462;2024-01-11T08:39:34;-7.10;99.90
49042;DHT22;34859;51.608;11.462;2024-01-11T08:43:20;-7.00;99.90
49042;DHT22;34859;51.608;11.462;2024-01-11T08:46:39;-7.00;99.90
49042;DHT22;34859;51.608;11.462;2024-01-11T08:53:19;-6.80;99.90
49042;DHT22;34859;51.608;11.462;2024-01-11T08:56:29;-6.70;99.90
49042;DHT22;34859;51.608;11.462;2024-01-11T08:59:39;-6.60;99.90
49042;DHT22;34859;51.608;11.462;2024-01-11T09:03:28;-6.60;99.90
49042;DHT22;34859;51.608;11.462;2024-01-11T09:06:25;-6.40;99.90
49042;DHT22;34859;51.608;11.462;2024-01-11T09:13:34;-6.20;99.90
49042;DHT22;34859;51.608;11.462;2024-01-11T09:28:27;-5.70;99.90
49042;DHT22;34859;51.608;11.462;2024-01-11T09:32:10;-5.60;99.90
49042;DHT22;34859;51.608;11.462;2024-01-11T09:35:52;-5.50;99.90
49042;DHT22;34859;51.608;11.462;2024-01-11T09:39:06;-5.40;99.90
49042;DHT22;34859;51.608;11.462;2024-01-11T09:45:42;-5.20;99.90
49042;DHT22;34859;51.608;11.462;2024-01-11T09:48:27;-5.00;99.90
49042;DHT22;34859;51.608;11.462;2024-01-11T09:51:10;-4.90;99.90
49042;DHT22;34859;51.608;11.462;2024-01-11T09:53:56;-4.80;99.90
49042;DHT22;34859;51.608;11.462;2024-01-11T09:56:43;-4.60;99.90
49042;DHT22;34859;51.608;11.462;2024-01-11T09:59:28;-4.50;99.90
49042;DHT22;34859;51.608;11.462;2024-01-11T10:02:13;-4.30;99.90
49042;DHT22;34859;51.608;11.462;2024-01-11T12:09:35;-0.60;99.90
49042;DHT22;34859;51.608;11.462;2024-01-11T12:12:20;-0.70;99.90
49042;DHT22;34859;51.608;11.462;2024-01-11T12:15:04;-0.70;99.90
49042;DHT22;34859;51.608;11.462;2024-01-11T12:17:48;-0.60;99.90
49042;DHT22;34859;51.608;11.462;2024-01-11T12:20:32;-0.50;99.90
49042;DHT22;34859;51.608;11.462;2024-01-11T12:23:16;-0.50;99.90
49042;DHT22;34859;51.608;11.462;2024-01-11T12:26:02;-0.50;99.90
49042;DHT22;34859;51.608;11.462;2024-01-11T12:28:46;-0.40;99.90
49042;DHT22;34859;51.608;11.462;2024-01-11T12:31:30;-0.40;99.90
49042;DHT22;34859;51.608;11.462;2024-01-11T12:34:14;-0.30;99.90
49042;DHT22;34859;51.608;11.462;2024-01-11T12:36:59;-0.30;99.90
49042;DHT22;34859;51.608;11.462;2024-01-11T12:39:45;-0.20;99.90
49042;DHT22;34859;51.608;11.462;2024-01-11T12:42:29;-0.20;99.90
49042;DHT22;34859;51.608;11.462;2024-01-11T12:45:11;-0.10;99.90
49042;DHT22;34859;51.608;11.462;2024-01-11T12:47:52;-0.10;99.90
49042;DHT22;34859;51.608;11.462;2024-01-11T12:50:38;0.00;99.90
49042;DHT22;34859;51.608;11.462;2024-01-11T12:53:24;0.10;99.90
49042;DHT22;34859;51.608;11.462;2024-01-11T12:56:08;0.00;99.90
49042;DHT22;34859;51.608;11.462;2024-01-11T12:59:05;0.00;99.90
49042;DHT22;34859;51.608;11.462;2024-01-11T13:01:51;0.00;99.90
49042;DHT22;34859;51.608;11.462;2024-01-11T13:04:37;0.00;99.90
49042;DHT22;34859;51.608;11.462;2024-01-11T13:07:21;0.00;99.90
49042;DHT22;34859;51.608;11.462;2024-01-11T13:10:04;-0.10;99.90
49042;DHT22;34859;51.608;11.462;2024-01-11T13:12:46;-0.30;99.90
49042;DHT22;34859;51.608;11.462;2024-01-11T13:15:31;-0.50;99.90
49042;DHT22;34859;51.608;11.462;2024-01-11T13:18:18;-0.70;99.90
49042;DHT22;34859;51.608;11.462;2024-01-11T13:21:03;-0.80;99.90
49042;DHT22;34859;51.608;11.462;2024-01-11T13:23:48;-1.00;99.90
49042;DHT22;34859;51.608;11.462;2024-01-11T13:26:32;-1.10;99.90
49042;DHT22;34859;51.608;11.462;2024-01-11T13:29:16;-1.30;99.90
49042;DHT22;34859;51.608;11.462;2024-01-11T13:32:00;-1.30;99.90
49042;DHT22;34859;51.608;11.462;2024-01-11T13:34:44;-1.40;99.90
49042;DHT22;34859;51.608;11.462;2024-01-11T13:37:30;-1.40;99.90
49042;DHT22;34859;51.608;11.462;2024-01-11T13:40:14;-1.40;99.90
49042;DHT22;34859;51.608;11.462;2024-01-11T13:42:59;-1.40;99.90
49042;DHT22;34859;51.608;11.462;2024-01-11T13:45:43;-1.40;99.90
49042;DHT22;34859;51.608;11.462;2024-01-11T13:48:28;-1.40;99.90
49042;DHT22;34859;51.608;11.462;2024-01-11T13:51:12;-1.40;99.90
49042;DHT22;34859;51.608;11.462;2024-01-11T13:53:58;-1.40;99.90
49042;DHT22;34859;51.608;11.462;2024-01-11T13:56:41;-1.50;99.90
49042;DHT22;34859;51.608;11.462;2024-01-11T13:59:25;-1.50;99.90
49042;DHT22;34859;51.608;11.462;2024-01-11T14:02:09;-1.60;99.90
49042;DHT22;34859;51.608;11.462;2024-01-11T14:04:53;-1.60;99.90
49042;DHT22;34859;51.608;11.462;2024-01-11T14:07:38;-1.60;99.90
49042;DHT22;34859;51.608;11.462;2024-01-11T14:10:23;-1.60;99.90
49042;DHT22;34859;51.608;11.462;2024-01-11T14:13:04;-1.60;99.90
49042;DHT22;34859;51.608;11.462;2024-01-11T14:15:48;-1.60;99.90
49042;DHT22;34859;51.608;11.462;2024-01-11T14:18:30;-1.70;99.90
49042;DHT22;34859;51.608;11.462;2024-01-11T14:21:15;-1.60;99.90
49042;DHT22;34859;51.608;11.462;2024-01-11T14:23:56;-1.70;99.90
49042;DHT22;34859;51.608;11.462;2024-01-11T14:26:40;-1.70;99.90
49042;DHT22;34859;51.608;11.462;2024-01-11T14:29:24;-1.70;99.90
49042;DHT22;34859;51.608;11.462;2024-01-11T14:32:08;-1.70;99.90
49042;DHT22;34859;51.608;11.462;2024-01-11T14:34:52;-1.70;99.90
49042;DHT22;34859;51.608;11.462;2024-01-11T14:37:34;-1.70;99.90
49042;DHT22;34859;51.608;11.462;2024-01-11T14:40:19;-1.70;99.90
49042;DHT22;34859;51.608;11.462;2024-01-11T14:43:03;-1.70;99.90
49042;DHT22;34859;51.608;11.462;2024-01-11T14:45:48;-1.60;99.90
49042;DHT22;34859;51.608;11.462;2024-01-11T14:48:32;-1.60;99.90
49042;DHT22;34859;51.608;11.462;2024-01-11T14:51:16;-1.60;99.90
49042;DHT22;34859;51.608;11.462;2024-01-11T14:54:00;-1.60;99.90
49042;DHT22;34859;51.608;11.462;2024-01-11T14:56:44;-1.60;99.90
49042;DHT22;34859;51.608;11.462;2024-01-11T14:59:28;-1.60;99.90
49042;DHT22;34859;51.608;11.462;2024-01-11T15:02:13;-1.60;99.90
49042;DHT22;34859;51.608;11.462;2024-01-11T15:04:57;-1.60;99.90
49042;DHT22;34859;51.608;11.462;2024-01-11T15:07:43;-1.60;99.90
49042;DHT22;34859;51.608;11.462;2024-01-11T15:10:27;-1.60;99.90
49042;DHT22;34859;51.608;11.462;2024-01-11T15:13:11;-1.50;99.90
49042;DHT22;34859;51.608;11.462;2024-01-11T15:15:55;-1.50;99.90
49042;DHT22;34859;51.608;11.462;2024-01-11T15:18:36;-1.50;99.90
49042;DHT22;34859;51.608;11.462;2024-01-11T15:21:17;-1.40;99.90
49042;DHT22;34859;51.608;11.462;2024-01-11T15:24:01;-1.40;99.90
49042;DHT22;34859;51.608;11.462;2024-01-11T15:26:43;-1.40;99.90
49042;DHT22;34859;51.608;11.462;2024-01-11T15:29:27;-1.40;99.90
49042;DHT22;34859;51.608;11.462;2024-01-11T15:32:11;-1.30;99.90
49042;DHT22;34859;51.608;11.462;2024-01-11T15:34:52;-1.30;99.90
49042;DHT22;34859;51.608;11.462;2024-01-11T15:37:37;-1.30;99.90
49042;DHT22;34859;51.608;11.462;2024-01-11T15:40:22;-1.20;99.90
49042;DHT22;34859;51.608;11.462;2024-01-11T15:43:03;-1.20;99.90
49042;DHT22;34859;51.608;11.462;2024-01-11T15:45:50;-1.10;99.90
49042;DHT22;34859;51.608;11.462;2024-01-11T15:48:34;-1.10;99.90
49042;DHT22;34859;51.608;11.462;2024-01-11T15:51:18;-1.10;99.90
49042;DHT22;34859;51.608;11.462;2024-01-11T15:54:02;-1.00;99.90
49042;DHT22;34859;51.608;11.462;2024-01-11T15:56:46;-1.00;99.90
49042;DHT22;34859;51.608;11.462;2024-01-11T15:59:30;-0.90;99.90
49042;DHT22;34859;51.608;11.462;2024-01-11T16:02:14;-0.90;99.90
49042;DHT22;34859;51.608;11.462;2024-01-11T16:04:59;-0.90;99.90
49042;DHT22;34859;51.608;11.462;2024-01-11T16:07:44;-0.80;99.90
49042;DHT22;34859;51.608;11.462;2024-01-11T16:10:28;-0.80;99.90
49042;DHT22;34859;51.608;11.462;2024-01-11T16:13:12;-0.70;99.90
49042;DHT22;34859;51.608;11.462;2024-01-11T16:15:56;-0.70;99.90
49042;DHT22;34859;51.608;11.462;2024-01-11T16:18:42;-0.60;99.90
49042;DHT22;34859;51.608;11.462;2024-01-11T16:21:23;-0.60;99.90
49042;DHT22;34859;51.608;11.462;2024-01-11T16:24:12;-0.60;99.90
49042;DHT22;34859;51.608;11.462;2024-01-11T16:26:56;-0.60;99.90
49042;DHT22;34859;51.608;11.462;2024-01-11T16:29:41;-0.50;99.90
49042;DHT22;34859;51.608;11.462;2024-01-11T16:32:22;-0.50;99.90
49042;DHT22;34859;51.608;11.462;2024-01-11T16:35:07;-0.40;99.90
49042;DHT22;34859;51.608;11.462;2024-01-11T16:37:51;-0.40;99.90
49042;DHT22;34859;51.608;11.462;2024-01-11T16:40:35;-0.40;99.90
49042;DHT22;34859;51.608;11.462;2024-01-11T16:43:20;-0.30;99.90
49042;DHT22;34859;51.608;11.462;2024-01-11T16:46:05;-0.20;99.90
49042;DHT22;34859;51.608;11.462;2024-01-11T16:48:46;-0.20;99.90
49042;DHT22;34859;51.608;11.462;2024-01-11T16:51:31;-0.20;99.90
49042;DHT22;34859;51.608;11.462;2024-01-11T16:54:15;-0.20;99.90
49042;DHT22;34859;51.608;11.462;2024-01-11T16:56:59;-0.10;99.90
49042;DHT22;34859;51.608;11.462;2024-01-11T16:59:43;-0.10;99.90
49042;DHT22;34859;51.608;11.462;2024-01-11T17:02:24;0.00;99.90
49042;DHT22;34859;51.608;11.462;2024-01-11T17:05:11;0.00;99.90
49042;DHT22;34859;51.608;11.462;2024-01-11T17:07:52;0.00;99.90
49042;DHT22;34859;51.608;11.462;2024-01-11T17:10:36;0.10;99.90
49042;DHT22;34859;51.608;11.462;2024-01-11T17:13:21;0.10;99.90
49042;DHT22;34859;51.608;11.462;2024-01-11T17:16:07;0.10;99.90
49042;DHT22;34859;51.608;11.462;2024-01-11T17:18:52;0.10;99.90
49042;DHT22;34859;51.608;11.462;2024-01-11T17:21:35;0.10;99.90
49042;DHT22;34859;51.608;11.462;2024-01-11T17:24:16;0.10;99.90
49042;DHT22;34859;51.608;11.462;2024-01-11T17:27:00;0.00;99.90
49042;DHT22;34859;51.608;11.462;2024-01-11T17:29:51;0.00;99.90
49042;DHT22;34859;51.608;11.462;2024-01-11T17:32:36;0.10;99.90
49042;DHT22;34859;51.608;11.462;2024-01-11T17:35:20;0.10;99.90
49042;DHT22;34859;51.608;11.462;2024-01-11T17:38:01;0.10;99.90
49042;DHT22;34859;51.608;11.462;2024-01-11T17:40:42;0.10;99.90
49042;DHT22;34859;51.608;11.462;2024-01-11T17:43:26;0.00;99.90
49042;DHT22;34859;51.608;11.462;2024-01-11T17:46:11;0.00;99.90
49042;DHT22;34859;51.608;11.462;2024-01-11T17:48:55;0.10;99.90
49042;DHT22;34859;51.608;11.462;2024-01-11T17:51:37;0.10;99.90
49042;DHT22;34859;51.608;11.462;2024-01-11T17:54:22;0.10;99.90
49042;DHT22;34859;51.608;11.462;2024-01-11T17:57:08;0.10;99.90
49042;DHT22;34859;51.608;11.462;2024-01-11T17:59:52;0.10;99.90
49042;DHT22;34859;51.608;11.462;2024-01-11T18:02:33;0.10;99.90
49042;DHT22;34859;51.608;11.462;2024-01-11T18:05:17;0.10;99.90
49042;DHT22;34859;51.608;11.462;2024-01-11T18:08:00;0.10;99.90
49042;DHT22;34859;51.608;11.462;2024-01-11T18:10:45;0.10;99.90
49042;DHT22;34859;51.608;11.462;2024-01-11T18:13:32;0.10;99.90
49042;DHT22;34859;51.608;11.462;2024-01-11T18:16:20;0.10;99.90
49042;DHT22;34859;51.608;11.462;2024-01-11T18:19:06;0.20;99.90
49042;DHT22;34859;51.608;11.462;2024-01-11T18:21:54;0.20;99.90
49042;DHT22;34859;51.608;11.462;2024-01-11T18:24:40;0.20;99.90
49042;DHT22;34859;51.608;11.462;2024-01-11T18:27:27;0.20;99.90
49042;DHT22;34859;51.608;11.462;2024-01-11T18:30:12;0.20;99.90
49042;DHT22;34859;51.608;11.462;2024-01-11T18:32:59;0.20;99.90
49042;DHT22;34859;51.608;11.462;2024-01-11T18:35:45;0.20;99.90
49042;DHT22;34859;51.608;11.462;2024-01-11T18:38:32;0.20;99.90
49042;DHT22;34859;51.608;11.462;2024-01-11T18:41:16;0.20;99.90
49042;DHT22;34859;51.608;11.462;2024-01-11T18:44:02;0.30;99.90
49042;DHT22;34859;51.608;11.462;2024-01-11T18:46:47;0.30;99.90
49042;DHT22;34859;51.608;11.462;2024-01-11T18:49:27;0.30;99.90
49042;DHT22;34859;51.608;11.462;2024-01-11T18:52:06;0.30;99.90
49042;DHT22;34859;51.608;11.462;2024-01-11T18:54:51;0.30;99.90
49042;DHT22;34859;51.608;11.462;2024-01-11T18:57:30;0.30;99.90
49042;DHT22;34859;51.608;11.462;2024-01-11T19:00:07;0.20;99.90
49042;DHT22;34859;51.608;11.462;2024-01-11T19:02:54;0.20;99.90
49042;DHT22;34859;51.608;11.462;2024-01-11T19:05:39;0.30;99.90
49042;DHT22;34859;51.608;11.462;2024-01-11T19:08:25;0.20;99.90
49042;DHT22;34859;51.608;11.462;2024-01-11T19:11:09;0.20;99.90
49042;DHT22;34859;51.608;11.462;2024-01-11T19:13:56;0.30;99.90
49042;DHT22;34859;51.608;11.462;2024-01-11T19:16:42;0.30;99.90
49042;DHT22;34859;51.608;11.462;2024-01-11T19:19:28;0.20;99.90
49042;DHT22;34859;51.608;11.462;2024-01-11T19:22:12;0.30;99.90
49042;DHT22;34859;51.608;11.462;2024-01-11T19:24:58;0.30;99.90
49042;DHT22;34859;51.608;11.462;2024-01-11T19:27:37;0.20;99.90
49042;DHT22;34859;51.608;11.462;2024-01-11T19:30:23;0.20;99.90
49042;DHT22;34859;51.608;11.462;2024-01-11T19:33:45;0.20;99.90
49042;DHT22;34859;51.608;11.462;2024-01-11T19:37:25;0.20;99.90
49042;DHT22;34859;51.608;11.462;2024-01-11T19:41:02;0.30;99.90
49042;DHT22;34859;51.608;11.462;2024-01-11T19:44:46;0.30;99.90